Ana Sayfa
METAR-TAF:

METAR-TAF

Havaalanları :

Harriman-and-West Airport

North Adams, Massachusetts, Amerika Birleşik Devletleri

Enlem: 42-41-50N, Boylam: 073-10-13W, yükseklik: 199 m

Güncel hava durumu gözlemi

Rapor saat 04:52 UTC de 15 dakika önce yapıldı.
Rüzgar batı/kuzeybatıdan 9 kt ve 21 kt'a kadar ani rüzgarlar
Sıcaklık -3°C
Nem 46%
Basınç 1019 hPa
Görüş mesafesi: 16.1 km
Açık gökyüzü

METAR: KAQW 160452Z AUTO 29009G21KT 10SM CLR M03/M13 A3009 RMK AO2 SLP197 T10331128 400441033 TSNO

Saat: 00:07 (05:07 UTC)


TAF: eksik

4.000'den fazla havaalanı için hava durumu gözlemleri ve tahminleri (METAR ve TAF raporları).

Kullanılabilir istasyonlar harita üzerinde sarı ve kırmızı noktalarla gösterilir.

İstasyonun adını görmek için fareyi noktanın üzerinde gezdirin.

Sonrasında hava gözlem ve tahminlerini görmek için tıklayın.

Haritayı değiştirmek için: yaklaştırmak için siyah artı işaretli yeşil düğmeye ve uzaklaştırmak için de eksi işaretli düğmeye hızla tıklayın; bitişik haritalar için yeşil okları kullanın.


METAR-TAF: